Capital City Airport Lansing US
ICAO: KLAN
IATA: LAN
Category: Medium
Scheduled Services: Yes

Elevation: 861 ft
TransAlt. 18000 ft.

Airport Communications:
LANSING APP/DEP:118.65
ATIS:119.75
CLNC DEL:123.675
GND:121.9
LANSING RDO:122.2
LANSING TWR:119.9
UNICOM:122.95

KLAN Zoom In..

Runways:

(A) RW 06 length 5002 ft width 120 ft
---- / hdg 58

(B) RW 10L length 3601 ft width 75 ft
---- / hdg 96

(C) RW 10R length 8506 ft width 150 ft
ILS 111.70 / hdg 96

(D) RW 24 length 5002 ft width 120 ft
---- / hdg 238

(E) RW 28L length 8506 ft width 150 ft
ILS 110.10 / hdg 276

(F) RW 28R length 3601 ft width 75 ft
---- / hdg 276

Location; KLAN
Day. 17 / Time. 06.53 Zulu
* Altimeter: 29.95
* Temperature: 17° c. 62.6°f.
* Wind from: 000° Speed 00 kn.
Dewpoint: 14° c.
Visibility: 10 Statute Miles.
Clouds: Clear (automated report).

KLAN 170653Z 00000KT 10SM CLR 17/14 A2995 RMK AO2 SLP135 T01720139


Wind - Calm.

 
 
jpsmedia.com for Web Design worldairports.se 2018   terms of use